Flugplatz Hahnweide

METAR ETHL TAF EDJA
-1 °C
°C
-
°C
46m
Alter
17:06:18
LT
16:06
UTC
0 ft

1.000

2.000

3.000

4.000

5.000

OVC 1.200
MVFR
<?= Yii::t('app', 'Wind direction') ?> <?= Yii::t('app', 'of'); ?>
280°
17:14
Sonne unter
80%
Luftfeuchtigkeit
Windscherung
Geschlossen/Schnee
RWY-Sichtweite
RWY Zustand
Vert. Sichtweite
Min. Sichtbarkeit
CAVOK
Trend
Korrektur
Besonderer Bericht
1024 hPa
QNH
METAR ETHL 291520Z 28005KT 9999 OVC012 M01/M04 Q1024 GRN
Himmel bedeckt
3 kt
3 kt
17:00
MVFR
4 kt
18:00
MVFR
4 kt
19:00
MVFR
4 kt
20:00
MVFR
4 kt
21:00
MVFR
4 kt
22:00
MVFR
4 kt
23:00
MVFR
9 kt
10 km+
Sichtweite
1.200 ft
Wolkendecke
5 kt
Wind
metar-taf.com/EDST

Metar-Taf.com

Visueller Decoder

Wir und Dritte verfolgen dein Internetverhalten auf unserer Website mit Cookies. Wenn du fortfährst, gehen wir davon aus, dass du mit unserer Cookie-Richtlinie einverstanden bist.